createdAt,value
2023-02-23T00:01:52.135Z,11.11
2023-02-23T00:04:18.871Z,11.10
2023-02-23T00:06:45.752Z,11.11
2023-02-23T00:09:23.029Z,11.12
2023-02-23T00:11:55.471Z,11.11
2023-02-23T00:14:31.299Z,11.13
2023-02-23T00:16:59.922Z,11.12
2023-02-23T00:19:26.846Z,11.13
2023-02-23T00:21:54.398Z,11.13
2023-02-23T00:24:21.415Z,11.13
2023-02-23T00:26:51.181Z,11.11
2023-02-23T00:29:20.703Z,11.12
2023-02-23T00:31:48.145Z,11.11
2023-02-23T00:34:16.650Z,11.12
2023-02-23T00:36:43.411Z,11.12
2023-02-23T00:39:21.818Z,11.10
2023-02-23T00:41:49.889Z,11.10
2023-02-23T00:44:16.941Z,11.09
2023-02-23T00:46:45.317Z,11.11
2023-02-23T00:49:13.299Z,11.11
2023-02-23T00:51:41.408Z,11.11
2023-02-23T00:54:10.442Z,11.12
2023-02-23T00:56:39.086Z,11.13
2023-02-23T00:59:06.854Z,11.12
2023-02-23T01:01:34.036Z,11.12
2023-02-23T01:04:02.065Z,11.11
2023-02-23T01:06:30.849Z,11.12
2023-02-23T01:08:57.947Z,11.11
2023-02-23T01:11:31.165Z,11.12
2023-02-23T01:13:59.610Z,11.11
2023-02-23T01:16:29.356Z,11.08
2023-02-23T01:18:58.871Z,11.08
2023-02-23T01:21:27.796Z,11.10
2023-02-23T01:23:55.075Z,11.11
2023-02-23T01:26:25.206Z,11.10
2023-02-23T01:29:00.731Z,11.12
2023-02-23T01:31:29.194Z,11.11
2023-02-23T01:33:58.871Z,11.12
2023-02-23T01:36:26.644Z,11.10
2023-02-23T01:38:57.067Z,11.12
2023-02-23T01:41:25.014Z,11.11
2023-02-23T01:44:13.721Z,11.13
2023-02-23T01:46:43.709Z,11.13
2023-02-23T01:49:25.703Z,11.13
2023-02-23T01:51:57.832Z,11.13
2023-02-23T01:54:33.631Z,11.12
2023-02-23T01:57:03.162Z,11.12
2023-02-23T01:59:39.182Z,11.13
2023-02-23T02:02:06.037Z,11.11
2023-02-23T02:04:43.991Z,11.12
2023-02-23T02:07:24.981Z,11.13
2023-02-23T02:10:17.601Z,11.11
2023-02-23T02:12:46.698Z,11.12
2023-02-23T02:15:20.156Z,11.13
2023-02-23T02:17:53.484Z,11.12
2023-02-23T02:20:42.967Z,11.13
2023-02-23T02:23:27.265Z,11.12
2023-02-23T02:26:09.926Z,11.11
2023-02-23T02:28:42.606Z,11.12
2023-02-23T02:31:19.809Z,11.11
2023-02-23T02:34:11.923Z,11.12
2023-02-23T02:37:17.130Z,11.14
2023-02-23T02:39:46.713Z,11.14
2023-02-23T02:42:21.897Z,11.12
2023-02-23T02:45:14.310Z,11.12
2023-02-23T02:48:03.621Z,11.12
2023-02-23T02:50:56.720Z,11.12
2023-02-23T02:53:41.769Z,11.12
2023-02-23T02:56:11.279Z,11.13
2023-02-23T02:58:39.068Z,11.12
2023-02-23T03:01:30.950Z,11.12
2023-02-23T03:04:18.399Z,11.11
2023-02-23T03:07:18.251Z,11.12
2023-02-23T03:10:21.418Z,11.11
2023-02-23T03:13:24.698Z,11.09
2023-02-23T03:16:30.495Z,11.12
2023-02-23T03:19:32.066Z,11.12
2023-02-23T03:22:32.426Z,11.11
2023-02-23T03:25:18.354Z,11.12
2023-02-23T03:28:16.219Z,11.12
2023-02-23T03:31:31.728Z,11.11
2023-02-23T03:34:33.548Z,11.12
2023-02-23T03:37:32.615Z,11.13
2023-02-23T03:40:37.481Z,11.12
2023-02-23T03:43:30.033Z,11.12
2023-02-23T03:46:17.147Z,11.10
2023-02-23T03:49:05.668Z,11.11
2023-02-23T03:51:55.522Z,11.13
2023-02-23T03:54:49.337Z,11.26
2023-02-23T03:57:39.202Z,11.22
2023-02-23T04:00:30.120Z,11.19
2023-02-23T04:03:18.338Z,11.17
2023-02-23T04:06:04.061Z,11.14
2023-02-23T04:08:54.888Z,11.14
2023-02-23T04:11:49.154Z,11.13
2023-02-23T04:14:23.636Z,11.12
2023-02-23T04:16:50.709Z,11.12
2023-02-23T04:19:17.423Z,11.12
2023-02-23T04:21:44.307Z,11.10
2023-02-23T04:24:11.485Z,11.09
2023-02-23T04:26:38.367Z,11.08
2023-02-23T04:29:05.137Z,11.09
2023-02-23T04:31:31.812Z,11.08
2023-02-23T04:33:58.505Z,11.07
2023-02-23T04:36:26.812Z,11.07
2023-02-23T04:38:53.446Z,11.06
2023-02-23T04:41:20.371Z,11.07
2023-02-23T04:43:47.257Z,11.07
2023-02-23T04:46:14.092Z,11.08
2023-02-23T04:48:40.827Z,11.05
2023-02-23T04:51:07.839Z,11.04
2023-02-23T04:53:34.592Z,11.05
2023-02-23T04:56:01.289Z,11.04
2023-02-23T04:58:28.489Z,11.05
2023-02-23T05:00:55.122Z,11.04
2023-02-23T05:03:21.822Z,11.04
2023-02-23T05:05:48.465Z,11.04
2023-02-23T05:08:15.156Z,11.03
2023-02-23T05:10:41.757Z,11.03
2023-02-23T05:13:08.440Z,11.03
2023-02-23T05:15:35.107Z,11.02
2023-02-23T05:18:01.824Z,11.03
2023-02-23T05:20:28.623Z,11.03
2023-02-23T05:22:55.344Z,11.01
2023-02-23T05:25:21.984Z,11.01
2023-02-23T05:27:48.665Z,11.02
2023-02-23T05:30:15.530Z,11.01
2023-02-23T05:32:42.313Z,11.01
2023-02-23T05:35:09.552Z,11.01
2023-02-23T05:37:36.393Z,11.00
2023-02-23T05:40:03.377Z,11.00
2023-02-23T05:42:30.134Z,10.99
2023-02-23T05:44:56.821Z,11.01
2023-02-23T05:47:23.570Z,11.02
2023-02-23T05:49:50.225Z,11.00
2023-02-23T05:52:16.891Z,11.00
2023-02-23T05:54:43.575Z,10.99
2023-02-23T05:57:10.218Z,10.99
2023-02-23T05:59:36.904Z,10.99
2023-02-23T06:02:05.992Z,10.99
2023-02-23T06:04:33.764Z,10.98
2023-02-23T06:07:00.487Z,10.98
2023-02-23T06:09:27.430Z,11.00
2023-02-23T06:11:54.094Z,10.99
2023-02-23T06:14:20.988Z,10.98
2023-02-23T06:16:48.876Z,10.98
2023-02-23T06:19:15.745Z,10.98
2023-02-23T06:21:42.474Z,10.99
2023-02-23T06:24:09.532Z,10.99
2023-02-23T06:26:36.372Z,10.97
2023-02-23T06:29:03.078Z,10.98
2023-02-23T06:31:30.669Z,10.98
2023-02-23T06:33:57.353Z,10.97
2023-02-23T06:36:24.013Z,10.98
2023-02-23T06:38:50.626Z,10.97
2023-02-23T06:41:18.207Z,10.97
2023-02-23T06:43:45.495Z,10.97
2023-02-23T06:46:12.421Z,10.97
2023-02-23T06:48:39.417Z,10.97
2023-02-23T06:51:06.275Z,10.97
2023-02-23T06:53:33.738Z,10.97
2023-02-23T06:56:00.516Z,10.98
2023-02-23T06:58:28.369Z,10.96
2023-02-23T07:00:59.412Z,10.95
2023-02-23T07:03:26.413Z,10.95
2023-02-23T07:05:54.286Z,10.97
2023-02-23T07:08:21.011Z,10.95
2023-02-23T07:10:47.721Z,10.95
2023-02-23T07:13:14.595Z,10.95
2023-02-23T07:15:42.319Z,10.97
2023-02-23T07:18:08.996Z,10.96
2023-02-23T07:20:35.732Z,10.95
2023-02-23T07:23:02.500Z,10.95
2023-02-23T07:25:30.029Z,10.95
2023-02-23T07:27:56.763Z,10.94
2023-02-23T07:30:26.331Z,10.93
2023-02-23T07:32:54.093Z,10.94
2023-02-23T07:35:21.034Z,10.94
2023-02-23T07:37:48.019Z,10.97
2023-02-23T07:40:15.010Z,10.96
2023-02-23T07:42:41.904Z,10.95
2023-02-23T07:45:10.332Z,10.94
2023-02-23T07:47:37.569Z,10.95
2023-02-23T07:50:09.805Z,10.94
2023-02-23T07:52:44.546Z,10.94
2023-02-23T07:55:11.908Z,10.95
2023-02-23T07:57:39.528Z,10.94
2023-02-23T08:00:07.258Z,10.93
2023-02-23T08:02:39.896Z,10.94
2023-02-23T08:05:07.110Z,10.94
2023-02-23T08:07:34.001Z,10.94
2023-02-23T08:10:00.820Z,10.94
2023-02-23T08:12:27.469Z,10.93
2023-02-23T08:14:54.380Z,10.93
2023-02-23T08:17:21.434Z,10.93
2023-02-23T08:19:48.780Z,10.94
2023-02-23T08:22:15.754Z,10.93
2023-02-23T08:24:42.494Z,10.93
2023-02-23T08:27:09.354Z,10.93
2023-02-23T08:29:36.051Z,10.94
2023-02-23T08:32:04.165Z,10.93
2023-02-23T08:34:31.452Z,10.93
2023-02-23T08:36:58.122Z,10.94
2023-02-23T08:39:24.919Z,10.93
2023-02-23T08:41:52.562Z,10.93
2023-02-23T08:44:19.439Z,10.93
2023-02-23T08:46:46.378Z,10.92
2023-02-23T08:49:13.215Z,10.92
2023-02-23T08:51:40.911Z,10.93
2023-02-23T08:54:14.260Z,10.93
2023-02-23T08:56:42.151Z,10.92
2023-02-23T08:59:09.696Z,10.91
2023-02-23T09:01:37.183Z,10.91
2023-02-23T09:04:05.840Z,10.91
2023-02-23T09:06:35.219Z,10.92
2023-02-23T09:09:01.889Z,10.91
2023-02-23T09:11:28.602Z,10.91
2023-02-23T09:13:55.489Z,10.91
2023-02-23T09:16:22.187Z,10.93
2023-02-23T09:18:49.092Z,10.92
2023-02-23T09:21:22.396Z,10.91
2023-02-23T09:23:51.302Z,10.92
2023-02-23T09:26:19.551Z,10.91
2023-02-23T09:28:46.877Z,10.92
2023-02-23T09:31:17.142Z,10.90
2023-02-23T09:33:44.099Z,10.91
2023-02-23T09:36:16.603Z,10.91
2023-02-23T09:38:44.875Z,10.91
2023-02-23T09:41:30.211Z,10.91
2023-02-23T09:44:15.733Z,10.91
2023-02-23T09:47:10.261Z,10.88
2023-02-23T09:49:43.143Z,10.90
2023-02-23T09:52:20.147Z,10.91
2023-02-23T09:54:47.548Z,10.90
2023-02-23T09:57:24.289Z,10.90
2023-02-23T09:59:51.029Z,10.91
2023-02-23T10:02:50.117Z,10.88
2023-02-23T10:05:17.147Z,10.90
2023-02-23T10:07:52.753Z,10.90
2023-02-23T10:10:25.296Z,10.90
2023-02-23T10:13:32.696Z,10.91
2023-02-23T10:16:30.593Z,10.90
2023-02-23T10:19:15.304Z,10.90
2023-02-23T10:21:46.610Z,10.88
2023-02-23T10:24:20.894Z,10.88
2023-02-23T10:27:02.630Z,10.88
2023-02-23T10:29:34.637Z,10.90
2023-02-23T10:32:08.142Z,10.90
2023-02-23T10:34:36.808Z,10.87
2023-02-23T10:37:06.695Z,10.88
2023-02-23T10:39:34.552Z,10.90
2023-02-23T10:42:05.972Z,10.91
2023-02-23T10:44:32.976Z,10.88
2023-02-23T10:47:11.460Z,10.88
2023-02-23T10:49:53.307Z,10.88
2023-02-23T10:52:45.769Z,10.90
2023-02-23T10:55:24.638Z,10.90
2023-02-23T10:58:16.940Z,10.91
2023-02-23T11:01:04.527Z,10.91
2023-02-23T11:03:57.633Z,10.91
2023-02-23T11:06:36.247Z,10.92
2023-02-23T11:09:24.778Z,10.90
2023-02-23T11:12:21.838Z,10.88
2023-02-23T11:14:54.205Z,10.90
2023-02-23T11:17:34.187Z,10.90
2023-02-23T11:20:19.008Z,10.90
2023-02-23T11:22:46.102Z,10.90
2023-02-23T11:25:18.959Z,10.91
2023-02-23T11:27:53.121Z,10.91
2023-02-23T11:30:24.561Z,10.91
2023-02-23T11:33:09.526Z,10.90
2023-02-23T11:35:37.957Z,10.91
2023-02-23T11:38:15.393Z,10.90
2023-02-23T11:40:42.336Z,10.91
2023-02-23T11:43:16.556Z,10.90
2023-02-23T11:45:52.008Z,10.90
2023-02-23T11:48:27.667Z,10.90
2023-02-23T11:50:56.012Z,10.91
2023-02-23T11:53:31.605Z,10.91
2023-02-23T11:56:08.358Z,10.90
2023-02-23T11:58:45.281Z,10.90
2023-02-23T12:01:20.987Z,10.91
2023-02-23T12:03:57.113Z,10.91
2023-02-23T12:06:37.702Z,10.93
2023-02-23T12:09:26.524Z,10.92
2023-02-23T12:12:16.317Z,10.93
2023-02-23T12:14:52.052Z,10.93
2023-02-23T12:17:29.582Z,10.95
2023-02-23T12:20:04.373Z,10.94
2023-02-23T12:22:46.550Z,10.93
2023-02-23T12:25:33.109Z,10.94
2023-02-23T12:28:18.236Z,10.96
2023-02-23T12:30:50.562Z,10.97
2023-02-23T12:33:48.605Z,10.95
2023-02-23T12:36:45.550Z,10.95
2023-02-23T12:39:25.339Z,10.97
2023-02-23T12:42:00.101Z,10.95
2023-02-23T12:44:38.758Z,10.96
2023-02-23T12:47:20.370Z,10.96
2023-02-23T12:50:07.356Z,10.95
2023-02-23T12:52:37.196Z,10.96
2023-02-23T12:55:09.651Z,10.95
2023-02-23T12:57:58.663Z,10.96
2023-02-23T13:00:48.047Z,10.95
2023-02-23T13:03:24.952Z,10.96
2023-02-23T13:06:11.662Z,10.96
2023-02-23T13:09:13.137Z,10.96
2023-02-23T13:11:47.192Z,10.97
2023-02-23T13:14:50.963Z,10.97
2023-02-23T13:17:37.983Z,10.96
2023-02-23T13:20:31.032Z,10.97
2023-02-23T13:23:00.564Z,10.97
2023-02-23T13:25:34.077Z,10.98
2023-02-23T13:28:02.043Z,10.97
2023-02-23T13:30:37.063Z,10.99
2023-02-23T13:33:15.912Z,10.98
2023-02-23T13:35:43.108Z,10.99
2023-02-23T13:38:39.214Z,10.98
2023-02-23T13:41:33.427Z,10.98
2023-02-23T13:44:28.987Z,10.98
2023-02-23T13:47:27.971Z,10.97
2023-02-23T13:50:17.726Z,10.97
2023-02-23T13:52:47.050Z,10.97
2023-02-23T13:55:26.185Z,10.97
2023-02-23T13:57:54.006Z,10.98
2023-02-23T14:00:22.536Z,10.98
2023-02-23T14:02:50.807Z,10.98
2023-02-23T14:05:25.006Z,10.99
2023-02-23T14:07:59.036Z,10.99
2023-02-23T14:10:29.532Z,10.99
2023-02-23T14:13:14.596Z,10.99
2023-02-23T14:15:44.373Z,10.99
2023-02-23T14:18:20.977Z,10.97
2023-02-23T14:21:05.318Z,10.99
2023-02-23T14:23:54.147Z,10.98
2023-02-23T14:26:29.744Z,10.97
2023-02-23T14:29:27.955Z,10.98
2023-02-23T14:31:54.882Z,10.98
2023-02-23T14:34:25.392Z,10.99
2023-02-23T14:36:56.548Z,10.97
2023-02-23T14:39:27.539Z,10.97
2023-02-23T14:41:59.902Z,10.99
2023-02-23T14:44:32.330Z,10.99
2023-02-23T14:47:14.164Z,10.97
2023-02-23T14:49:49.196Z,10.98
2023-02-23T14:52:25.185Z,10.97
2023-02-23T14:54:52.893Z,10.98
2023-02-23T14:57:25.707Z,10.98
2023-02-23T15:00:01.126Z,10.97
2023-02-23T15:02:30.937Z,10.97
2023-02-23T15:04:57.985Z,10.99
2023-02-23T15:07:33.775Z,10.99
2023-02-23T15:10:02.863Z,10.98
2023-02-23T15:12:35.416Z,10.98
2023-02-23T15:15:08.019Z,10.99
2023-02-23T15:17:35.053Z,11.00
2023-02-23T15:20:17.699Z,10.98
2023-02-23T15:22:52.252Z,10.98
2023-02-23T15:25:23.993Z,10.97
2023-02-23T15:27:51.922Z,10.98
2023-02-23T15:30:30.960Z,10.99
2023-02-23T15:33:00.766Z,10.98
2023-02-23T15:35:28.715Z,10.99
2023-02-23T15:38:07.673Z,10.99
2023-02-23T15:40:43.372Z,10.99
2023-02-23T15:43:11.499Z,10.98
2023-02-23T15:45:50.778Z,10.98
2023-02-23T15:48:22.715Z,10.97
2023-02-23T15:50:58.480Z,10.97
2023-02-23T15:53:40.795Z,10.99
2023-02-23T15:56:20.110Z,11.00
2023-02-23T15:58:57.370Z,10.99
2023-02-23T16:01:29.334Z,11.00
2023-02-23T16:04:13.839Z,10.97
2023-02-23T16:07:06.646Z,10.98
2023-02-23T16:09:38.559Z,10.99
2023-02-23T16:12:08.006Z,10.98
2023-02-23T16:15:15.316Z,10.98
2023-02-23T16:17:48.587Z,10.97
2023-02-23T16:20:29.191Z,10.97
2023-02-23T16:22:58.082Z,10.96
2023-02-23T16:25:27.831Z,10.97
2023-02-23T16:28:01.390Z,10.99
2023-02-23T16:30:43.313Z,10.98
2023-02-23T16:33:24.484Z,10.97
2023-02-23T16:36:04.936Z,10.98
2023-02-23T16:38:42.274Z,10.99
2023-02-23T16:41:21.430Z,10.99
2023-02-23T16:43:50.179Z,10.98
2023-02-23T16:46:18.361Z,10.98
2023-02-23T16:48:45.361Z,10.98
2023-02-23T16:51:17.874Z,10.98
2023-02-23T16:53:45.290Z,10.97
2023-02-23T16:56:18.213Z,10.97
2023-02-23T16:58:51.015Z,10.98
2023-02-23T17:01:19.014Z,10.99
2023-02-23T17:04:03.888Z,10.98
2023-02-23T17:06:30.668Z,10.97
2023-02-23T17:08:58.453Z,10.98
2023-02-23T17:11:26.014Z,10.97
2023-02-23T17:13:52.704Z,10.98
2023-02-23T17:16:20.004Z,10.98
2023-02-23T17:18:46.813Z,10.97
2023-02-23T17:21:23.650Z,10.97
2023-02-23T17:23:52.229Z,10.97
2023-02-23T17:26:24.836Z,10.96
2023-02-23T17:28:52.129Z,10.96
2023-02-23T17:31:20.426Z,10.97
2023-02-23T17:33:48.196Z,10.95
2023-02-23T17:36:17.128Z,10.97
2023-02-23T17:38:47.110Z,10.97
2023-02-23T17:41:17.337Z,10.97
2023-02-23T17:43:44.430Z,10.96
2023-02-23T17:46:12.670Z,10.97
2023-02-23T17:48:40.819Z,10.96
2023-02-23T17:51:12.034Z,10.95
2023-02-23T17:53:40.162Z,10.97
2023-02-23T17:56:07.621Z,10.97
2023-02-23T17:58:35.114Z,10.95
2023-02-23T18:01:03.881Z,10.96
2023-02-23T18:03:32.929Z,10.97
2023-02-23T18:06:02.136Z,10.96
2023-02-23T18:08:29.153Z,10.95
2023-02-23T18:10:56.623Z,10.94
2023-02-23T18:13:24.942Z,10.94
2023-02-23T18:15:55.059Z,10.96
2023-02-23T18:18:24.208Z,10.94
2023-02-23T18:20:56.490Z,10.94
2023-02-23T18:23:25.480Z,10.96
2023-02-23T18:25:52.386Z,10.95
2023-02-23T18:28:19.266Z,10.95
2023-02-23T18:30:46.574Z,10.95
2023-02-23T18:33:13.847Z,10.94
2023-02-23T18:35:44.968Z,10.94
2023-02-23T18:38:14.162Z,10.95
2023-02-23T18:40:41.702Z,10.94
2023-02-23T18:43:09.029Z,10.94
2023-02-23T18:45:35.802Z,10.95
2023-02-23T18:48:02.718Z,10.95
2023-02-23T18:50:29.586Z,10.95
2023-02-23T18:52:58.996Z,10.93
2023-02-23T18:55:25.753Z,10.93
2023-02-23T18:57:52.852Z,10.92
2023-02-23T19:00:20.561Z,10.92
2023-02-23T19:02:48.015Z,10.91
2023-02-23T19:05:18.117Z,10.92
2023-02-23T19:07:45.760Z,10.90
2023-02-23T19:10:14.849Z,10.91
2023-02-23T19:12:41.617Z,10.92
2023-02-23T19:15:09.273Z,10.90
2023-02-23T19:17:47.444Z,10.91
2023-02-23T19:20:14.486Z,10.93
2023-02-23T19:22:41.751Z,10.91
2023-02-23T19:25:14.248Z,10.90
2023-02-23T19:27:41.899Z,10.90
2023-02-23T19:30:10.174Z,10.90
2023-02-23T19:32:39.773Z,10.90
2023-02-23T19:35:09.304Z,10.91
2023-02-23T19:37:36.063Z,10.95
2023-02-23T19:40:03.829Z,11.27
2023-02-23T19:42:32.691Z,11.59
2023-02-23T19:44:59.806Z,11.74
2023-02-23T19:47:26.556Z,11.77
2023-02-23T19:49:54.911Z,11.67
2023-02-23T19:52:23.350Z,11.64
2023-02-23T19:54:50.316Z,11.70
2023-02-23T19:57:17.216Z,11.72
2023-02-23T19:59:44.035Z,11.73
2023-02-23T20:02:11.312Z,11.79
2023-02-23T20:04:38.350Z,11.82
2023-02-23T20:07:04.996Z,11.82
2023-02-23T20:09:31.697Z,11.69
2023-02-23T20:11:58.423Z,11.66
2023-02-23T20:14:25.146Z,11.56
2023-02-23T20:16:51.902Z,11.57
2023-02-23T20:19:19.722Z,11.51
2023-02-23T20:21:46.398Z,11.47
2023-02-23T20:24:13.373Z,11.45
2023-02-23T20:26:40.038Z,11.45
2023-02-23T20:29:10.942Z,11.42
2023-02-23T20:31:41.904Z,11.37
2023-02-23T20:34:12.244Z,11.34
2023-02-23T20:36:39.992Z,11.32
2023-02-23T20:39:07.266Z,11.29
2023-02-23T20:41:33.992Z,11.29
2023-02-23T20:44:01.231Z,11.26
2023-02-23T20:46:30.957Z,11.24
2023-02-23T20:48:59.229Z,11.23
2023-02-23T20:51:26.634Z,11.20
2023-02-23T20:53:53.247Z,11.20
2023-02-23T20:56:22.112Z,11.20
2023-02-23T20:58:49.116Z,11.18
2023-02-23T21:01:20.377Z,11.17
2023-02-23T21:03:47.809Z,11.16
2023-02-23T21:06:16.090Z,11.13
2023-02-23T21:08:42.721Z,11.13
2023-02-23T21:11:09.463Z,11.12
2023-02-23T21:13:36.303Z,11.12
2023-02-23T21:16:03.544Z,11.12
2023-02-23T21:18:31.340Z,11.08
2023-02-23T21:21:09.708Z,11.07
2023-02-23T21:23:44.906Z,11.07
2023-02-23T21:26:16.064Z,11.06
2023-02-23T21:28:46.387Z,11.03
2023-02-23T21:31:14.502Z,11.04
2023-02-23T21:33:43.107Z,11.03
2023-02-23T21:36:11.151Z,11.02
2023-02-23T21:38:40.198Z,11.01
2023-02-23T21:41:07.997Z,11.00
2023-02-23T21:43:36.353Z,10.99
2023-02-23T21:46:14.664Z,10.99
2023-02-23T21:48:43.041Z,10.98
2023-02-23T21:51:13.057Z,10.97
2023-02-23T21:53:40.976Z,10.95
2023-02-23T21:56:21.203Z,10.96
2023-02-23T21:58:50.672Z,10.95
2023-02-23T22:01:22.224Z,10.95
2023-02-23T22:03:49.460Z,10.95
2023-02-23T22:06:21.368Z,10.95
2023-02-23T22:08:51.818Z,10.94
2023-02-23T22:11:22.096Z,10.93
2023-02-23T22:13:54.402Z,10.93
2023-02-23T22:16:22.390Z,10.93
2023-02-23T22:18:50.544Z,10.91
2023-02-23T22:21:19.198Z,10.93
2023-02-23T22:23:50.209Z,10.91
2023-02-23T22:26:17.881Z,10.91
2023-02-23T22:28:45.037Z,10.91
2023-02-23T22:31:13.796Z,10.91
2023-02-23T22:33:43.135Z,10.90
2023-02-23T22:36:18.083Z,10.91
2023-02-23T22:38:45.670Z,10.89
2023-02-23T22:41:13.158Z,10.89
2023-02-23T22:43:41.848Z,10.89
2023-02-23T22:46:09.543Z,10.85
2023-02-23T22:48:36.416Z,10.88
2023-02-23T22:51:03.699Z,10.89
2023-02-23T22:53:31.600Z,10.88
2023-02-23T22:55:59.624Z,10.86
2023-02-23T22:58:26.831Z,10.85
2023-02-23T23:01:04.873Z,10.91
2023-02-23T23:03:41.974Z,10.99
2023-02-23T23:06:11.410Z,11.00
2023-02-23T23:08:42.940Z,11.00
2023-02-23T23:11:15.594Z,10.97
2023-02-23T23:13:57.609Z,10.96
2023-02-23T23:16:32.299Z,10.96
2023-02-23T23:19:07.870Z,10.95
2023-02-23T23:21:35.995Z,10.95
2023-02-23T23:24:08.087Z,10.94
2023-02-23T23:26:39.663Z,10.95
2023-02-23T23:29:10.171Z,10.97
2023-02-23T23:31:38.734Z,10.96
2023-02-23T23:34:11.552Z,10.95
2023-02-23T23:36:49.128Z,10.96
2023-02-23T23:39:18.337Z,10.96
2023-02-23T23:41:48.902Z,10.95
2023-02-23T23:44:18.669Z,10.95
2023-02-23T23:46:46.741Z,10.95
2023-02-23T23:49:16.516Z,10.96
2023-02-23T23:51:45.998Z,10.96
2023-02-23T23:54:14.386Z,10.95
2023-02-23T23:56:41.752Z,10.97
2023-02-23T23:59:11.500Z,10.95
